Sct Santiago — V7NF7 — position and weather

sailwx.info

Track history (hours):
 
Tides and Currents Weather Stations Pressure Air Temp Water Temp Dewpoint Dewpoint Depression Visibility Wind Speed Wind Dir Waves Ship Positions

Sct Santiago

Last reported at 2015-May-04 04:19 UTC. Time now 2015-May-04 16:04 UTC.
Position N 49°58' W 002°50'.

Length 294 m; draft 11.8 m.

Type: Cargo ship. MMSI: 538002953.

Date/timePositionNaut miles runAvg speedWind from/ knotsBaromVisibWave heightAir tempDewpointWater temp
2015-May-04 04:19N 49°58' W 002°50'2019.5
2015-May-04 03:18N 50°04' W 002°21'9919.1
2015-May-03 22:07N 50°30' E 000°08'915.9
2015-May-03 21:33N 50°32' E 000°22'1615.6
2015-May-03 20:33N 50°39' E 000°44'1716.9
2015-May-03 19:34N 50°48' E 001°06'1919.0
2015-May-03 18:34N 51°02' E 001°28'1919.1
2015-May-03 17:34N 51°15' E 001°49'1414.3
2015-May-03 16:34N 51°23' E 002°08'1616.3
2015-May-03 15:33N 51°23' E 002°34'1313.2
2015-May-03 14:34N 51°23' E 002°55'1818.3
2015-May-03 13:34N 51°25' E 003°24'1111.3
2015-May-03 12:33N 51°24' E 003°43'9 9.1
2015-May-03 11:33N 51°24' E 003°57'8 8.3
2015-May-03 10:32N 51°24' E 004°11'5 5.1
2015-May-03 09:33N 51°21' E 004°17'2 1.8
2015-May-03 08:33N 51°19' E 004°19'1 0.5
2015-May-03 07:28N 51°20' E 004°20'0 0.0
2015-May-03 06:31N 51°20' E 004°20'0 0.0
2015-May-03 05:31N 51°20' E 004°20'0 0.0
2015-May-03 04:31N 51°20' E 004°20'0 0.0
2015-May-03 03:22N 51°20' E 004°20'0 0.0
2015-May-03 02:25N 51°20' E 004°20'0 0.0
2015-May-03 01:22N 51°20' E 004°20'0 0.0
2015-May-03 00:31N 51°20' E 004°20'0 0.0
2015-May-02 23:31N 51°20' E 004°20'0 0.0
2015-May-02 22:31N 51°20' E 004°20'0 0.0
2015-May-02 21:31N 51°20' E 004°20'0 0.0
2015-May-02 20:25N 51°20' E 004°20'0 0.0
2015-May-02 19:34N 51°20' E 004°20'0 0.0
2015-May-02 18:34N 51°20' E 004°20'0 0.0
2015-May-02 17:30N 51°20' E 004°20'0 0.0
2015-May-02 16:33N 51°20' E 004°20'0 0.0
2015-May-02 15:33N 51°20' E 004°20'0 0.0
2015-May-02 14:33N 51°20' E 004°20'0 0.0
2015-May-02 13:33N 51°20' E 004°20'0 0.0
2015-May-02 12:33N 51°20' E 004°20'0 0.0
2015-May-02 11:33N 51°20' E 004°20'0 0.0
2015-May-02 10:30N 51°20' E 004°20'0 0.0
2015-May-02 09:33N 51°20' E 004°20'0 0.0
2015-May-02 08:33N 51°20' E 004°20'0 0.0
2015-May-02 07:33N 51°20' E 004°20'0 0.0
2015-May-02 06:33N 51°20' E 004°20'0 0.0
2015-May-02 05:33N 51°20' E 004°20'0 0.0
2015-May-02 04:33N 51°20' E 004°20'0 0.0
2015-May-02 03:30N 51°20' E 004°20'0 0.0
2015-May-02 02:33N 51°20' E 004°20'0 0.0
2015-May-02 01:33N 51°20' E 004°20'0 0.0
2015-May-02 00:33N 51°20' E 004°20'0 0.0
2015-May-01 23:33N 51°20' E 004°20'0 0.0
2015-May-01 22:33N 51°20' E 004°20'2 2.2
2015-May-01 21:33N 51°21' E 004°17'0 0.0
2015-May-01 20:34N 51°21' E 004°17'2 2.1
2015-May-01 19:33N 51°21' E 004°14'9 9.0
2015-May-01 18:33N 51°26' E 004°01'1010.3
2015-May-01 17:33N 51°22' E 003°46'9 8.8
2015-May-01 16:33N 51°25' E 003°33'1211.7
2015-May-01 15:33N 51°25' E 003°15'1413.7
2015-May-01 14:33N 51°25' E 002°53'7 6.7
2015-May-01 13:33N 51°25' E 002°42'4 3.8
2015-May-01 12:31N 51°25' E 002°35'0 0.4
2015-May-01 11:30N 51°25' E 002°35'0 0.2
2015-May-01 10:29N 51°25' E 002°34'0 0.1
2015-May-01 09:32N 51°25' E 002°34'0 0.0
2015-May-01 08:31N 51°25' E 002°34'0 0.0
2015-May-01 07:31N 51°25' E 002°34'0 0.0
2015-May-01 06:31N 51°25' E 002°34'0 0.0
2015-May-01 05:28N 51°25' E 002°34'0 0.0
2015-May-01 04:28N 51°25' E 002°34'1 0.8
2015-May-01 03:33N 51°24' E 002°34'8 7.9
2015-May-01 02:33N 51°20' E 002°24'1313.2
2015-May-01 01:33N 51°21' E 002°03'1515.3
2015-May-01 00:34N 51°34' E 001°48'1414.5
2015-Apr-30 23:33N 51°48' E 001°43'1110.9
2015-Apr-30 22:34N 51°56' E 001°32'9 9.1
2015-Apr-30 21:33N 51°58' E 001°18'0 0.0
2015-Apr-30 20:33N 51°58' E 001°18'0 0.0
2015-Apr-30 19:33N 51°58' E 001°18'0 0.0
2015-Apr-30 18:33N 51°58' E 001°18'0 0.0
2015-Apr-30 17:33N 51°58' E 001°18'0 0.0
2015-Apr-30 16:33N 51°58' E 001°18'0 0.0
2015-Apr-30 15:33N 51°58' E 001°18'0 0.0
2015-Apr-30 14:33N 51°58' E 001°18'0 0.0
2015-Apr-30 13:33N 51°58' E 001°18'0 0.0
2015-Apr-30 12:33N 51°58' E 001°18'0 0.0
2015-Apr-30 11:33N 51°58' E 001°18'0 0.0
2015-Apr-30 10:33N 51°58' E 001°18'0 0.0
2015-Apr-30 09:33N 51°58' E 001°18'0 0.0
2015-Apr-30 08:33N 51°58' E 001°18'0 0.0
2015-Apr-30 07:33N 51°58' E 001°18'0 0.0
2015-Apr-30 06:33N 51°58' E 001°18'0 0.3
2015-Apr-30 05:33N 51°57' E 001°18'10 9.6
2015-Apr-30 04:34N 51°56' E 001°33'10 9.9
2015-Apr-30 03:34N 51°51' E 001°47'1514.8
2015-Apr-30 02:33N 51°36' E 001°51'1514.7
2015-Apr-30 01:33N 51°23' E 002°02'1716.9
2015-Apr-30 00:33N 51°10' E 001°45'1918.7
2015-Apr-29 23:33N 50°56' E 001°26'3917.2
2015-Apr-29 21:17N 50°28' E 000°44'1418.3
2015-Apr-29 20:32N 50°22' E 000°24'80318.2
2015-Apr-28 00:24N 39°08' W 009°52'1719.9
2015-Apr-27 23:33N 38°52' W 009°52'2020.0
2015-Apr-27 22:33N 38°32' W 009°48'2019.9
2015-Apr-27 21:33N 38°12' W 009°42'2019.8
2015-Apr-27 20:33N 37°53' W 009°37'2019.8
2015-Apr-27 19:32N 37°34' W 009°31'5917.9
2015-Apr-27 16:13N 36°41' W 008°56'1319.5
2015-Apr-27 15:33N 36°37' W 008°41'2019.4
2015-Apr-27 14:33N 36°31' W 008°17'13919.3
2015-Apr-27 07:22N 35°59' W 005°30'1518.6
2015-Apr-27 06:33N 36°03' W 005°12'11519.1
2015-Apr-27 00:33N 36°20' W 002°52'1818.1
2015-Apr-26 23:33N 36°23' W 002°30'1918.4
2015-Apr-26 22:33N 36°27' W 002°08'6319.4
2015-Apr-26 19:17N 36°37' W 000°50'9719.0
2015-Apr-26 14:13N 36°52' E 001°09'1719.2
2015-Apr-26 13:20N 36°55' E 001°30'1519.1
2015-Apr-26 12:33N 36°57' E 001°48'30219.9
2015-Apr-25 21:24N 37°45' E 008°04'1720.4
2015-Apr-25 20:33N 37°48' E 008°25'2020.3
2015-Apr-25 19:32N 37°51' E 008°51'2019.7
2015-Apr-25 18:33N 37°48' E 009°16'2020.4
2015-Apr-25 17:33N 37°42' E 009°40'2020.3
2015-Apr-25 16:33N 37°39' E 010°06'2019.9
2015-Apr-25 15:31N 37°36' E 010°31'4220.0
2015-Apr-25 13:25N 37°23' E 011°22'1820.2
2015-Apr-25 12:30N 37°15' E 011°42'2320.1
2015-Apr-25 11:23N 37°04' E 012°07'6720.2
2015-Apr-25 08:03N 36°45' E 013°28'1220.0
2015-Apr-25 07:28N 36°42' E 013°42'1819.8
2015-Apr-25 06:34N 36°37' E 014°04'2020.1
2015-Apr-25 05:34N 36°31' E 014°28'2120.0
2015-Apr-25 04:32N 36°29' E 014°53'  
Track history (hours):
 
Tides and Currents Weather Stations Pressure Air Temp Water Temp Dewpoint Dewpoint Depression Visibility Wind Speed Wind Dir Waves Ship Positions

Sct Santiago

Last reported at 2015-May-04 04:19 UTC. Time now 2015-May-04 16:04 UTC.
Position N 49°58' W 002°50'.

Length 294 m; draft 11.8 m.

Type: Cargo ship. MMSI: 538002953.

Date/timePositionNaut miles runAvg speedWind from/ knotsBaromVisibWave heightAir tempDewpointWater temp
2015-May-04 04:19N 49°58' W 002°50'2019.5
2015-May-04 03:18N 50°04' W 002°21'9919.1
2015-May-03 22:07N 50°30' E 000°08'915.9
2015-May-03 21:33N 50°32' E 000°22'1615.6
2015-May-03 20:33N 50°39' E 000°44'1716.9
2015-May-03 19:34N 50°48' E 001°06'1919.0
2015-May-03 18:34N 51°02' E 001°28'1919.1
2015-May-03 17:34N 51°15' E 001°49'1414.3
2015-May-03 16:34N 51°23' E 002°08'1616.3
2015-May-03 15:33N 51°23' E 002°34'1313.2
2015-May-03 14:34N 51°23' E 002°55'1818.3
2015-May-03 13:34N 51°25' E 003°24'1111.3
2015-May-03 12:33N 51°24' E 003°43'9 9.1
2015-May-03 11:33N 51°24' E 003°57'8 8.3
2015-May-03 10:32N 51°24' E 004°11'5 5.1
2015-May-03 09:33N 51°21' E 004°17'2 1.8
2015-May-03 08:33N 51°19' E 004°19'1 0.5
2015-May-03 07:28N 51°20' E 004°20'0 0.0
2015-May-03 06:31N 51°20' E 004°20'0 0.0
2015-May-03 05:31N 51°20' E 004°20'0 0.0
2015-May-03 04:31N 51°20' E 004°20'0 0.0
2015-May-03 03:22N 51°20' E 004°20'0 0.0
2015-May-03 02:25N 51°20' E 004°20'0 0.0
2015-May-03 01:22N 51°20' E 004°20'0 0.0
2015-May-03 00:31N 51°20' E 004°20'0 0.0
2015-May-02 23:31N 51°20' E 004°20'0 0.0
2015-May-02 22:31N 51°20' E 004°20'0 0.0
2015-May-02 21:31N 51°20' E 004°20'0 0.0
2015-May-02 20:25N 51°20' E 004°20'0 0.0
2015-May-02 19:34N 51°20' E 004°20'0 0.0
2015-May-02 18:34N 51°20' E 004°20'0 0.0
2015-May-02 17:30N 51°20' E 004°20'0 0.0
2015-May-02 16:33N 51°20' E 004°20'0 0.0
2015-May-02 15:33N 51°20' E 004°20'0 0.0
2015-May-02 14:33N 51°20' E 004°20'0 0.0
2015-May-02 13:33N 51°20' E 004°20'0 0.0
2015-May-02 12:33N 51°20' E 004°20'0 0.0
2015-May-02 11:33N 51°20' E 004°20'0 0.0
2015-May-02 10:30N 51°20' E 004°20'0 0.0
2015-May-02 09:33N 51°20' E 004°20'0 0.0
2015-May-02 08:33N 51°20' E 004°20'0 0.0
2015-May-02 07:33N 51°20' E 004°20'0 0.0
2015-May-02 06:33N 51°20' E 004°20'0 0.0
2015-May-02 05:33N 51°20' E 004°20'0 0.0
2015-May-02 04:33N 51°20' E 004°20'0 0.0
2015-May-02 03:30N 51°20' E 004°20'0 0.0
2015-May-02 02:33N 51°20' E 004°20'0 0.0
2015-May-02 01:33N 51°20' E 004°20'0 0.0
2015-May-02 00:33N 51°20' E 004°20'0 0.0
2015-May-01 23:33N 51°20' E 004°20'0 0.0
2015-May-01 22:33N 51°20' E 004°20'2 2.2
2015-May-01 21:33N 51°21' E 004°17'0 0.0
2015-May-01 20:34N 51°21' E 004°17'2 2.1
2015-May-01 19:33N 51°21' E 004°14'9 9.0
2015-May-01 18:33N 51°26' E 004°01'1010.3
2015-May-01 17:33N 51°22' E 003°46'9 8.8
2015-May-01 16:33N 51°25' E 003°33'1211.7
2015-May-01 15:33N 51°25' E 003°15'1413.7
2015-May-01 14:33N 51°25' E 002°53'7 6.7
2015-May-01 13:33N 51°25' E 002°42'4 3.8
2015-May-01 12:31N 51°25' E 002°35'0 0.4
2015-May-01 11:30N 51°25' E 002°35'0 0.2
2015-May-01 10:29N 51°25' E 002°34'0 0.1
2015-May-01 09:32N 51°25' E 002°34'0 0.0
2015-May-01 08:31N 51°25' E 002°34'0 0.0
2015-May-01 07:31N 51°25' E 002°34'0 0.0
2015-May-01 06:31N 51°25' E 002°34'0 0.0
2015-May-01 05:28N 51°25' E 002°34'0 0.0
2015-May-01 04:28N 51°25' E 002°34'1 0.8
2015-May-01 03:33N 51°24' E 002°34'8 7.9
2015-May-01 02:33N 51°20' E 002°24'1313.2
2015-May-01 01:33N 51°21' E 002°03'1515.3
2015-May-01 00:34N 51°34' E 001°48'1414.5
2015-Apr-30 23:33N 51°48' E 001°43'1110.9
2015-Apr-30 22:34N 51°56' E 001°32'9 9.1
2015-Apr-30 21:33N 51°58' E 001°18'0 0.0
2015-Apr-30 20:33N 51°58' E 001°18'0 0.0
2015-Apr-30 19:33N 51°58' E 001°18'0 0.0
2015-Apr-30 18:33N 51°58' E 001°18'0 0.0
2015-Apr-30 17:33N 51°58' E 001°18'0 0.0
2015-Apr-30 16:33N 51°58' E 001°18'0 0.0
2015-Apr-30 15:33N 51°58' E 001°18'0 0.0
2015-Apr-30 14:33N 51°58' E 001°18'0 0.0
2015-Apr-30 13:33N 51°58' E 001°18'0 0.0
2015-Apr-30 12:33N 51°58' E 001°18'0 0.0
2015-Apr-30 11:33N 51°58' E 001°18'0 0.0
2015-Apr-30 10:33N 51°58' E 001°18'0 0.0
2015-Apr-30 09:33N 51°58' E 001°18'0 0.0
2015-Apr-30 08:33N 51°58' E 001°18'0 0.0
2015-Apr-30 07:33N 51°58' E 001°18'0 0.0
2015-Apr-30 06:33N 51°58' E 001°18'0 0.3
2015-Apr-30 05:33N 51°57' E 001°18'10 9.6
2015-Apr-30 04:34N 51°56' E 001°33'10 9.9
2015-Apr-30 03:34N 51°51' E 001°47'1514.8
2015-Apr-30 02:33N 51°36' E 001°51'1514.7
2015-Apr-30 01:33N 51°23' E 002°02'1716.9
2015-Apr-30 00:33N 51°10' E 001°45'1918.7
2015-Apr-29 23:33N 50°56' E 001°26'3917.2
2015-Apr-29 21:17N 50°28' E 000°44'1418.3
2015-Apr-29 20:32N 50°22' E 000°24'80318.2
2015-Apr-28 00:24N 39°08' W 009°52'1719.9
2015-Apr-27 23:33N 38°52' W 009°52'2020.0
2015-Apr-27 22:33N 38°32' W 009°48'2019.9
2015-Apr-27 21:33N 38°12' W 009°42'2019.8
2015-Apr-27 20:33N 37°53' W 009°37'2019.8
2015-Apr-27 19:32N 37°34' W 009°31'5917.9
2015-Apr-27 16:13N 36°41' W 008°56'1319.5
2015-Apr-27 15:33N 36°37' W 008°41'2019.4
2015-Apr-27 14:33N 36°31' W 008°17'13919.3
2015-Apr-27 07:22N 35°59' W 005°30'1518.6
2015-Apr-27 06:33N 36°03' W 005°12'11519.1
2015-Apr-27 00:33N 36°20' W 002°52'1818.1
2015-Apr-26 23:33N 36°23' W 002°30'1918.4
2015-Apr-26 22:33N 36°27' W 002°08'6319.4
2015-Apr-26 19:17N 36°37' W 000°50'9719.0
2015-Apr-26 14:13N 36°52' E 001°09'1719.2
2015-Apr-26 13:20N 36°55' E 001°30'1519.1
2015-Apr-26 12:33N 36°57' E 001°48'30219.9
2015-Apr-25 21:24N 37°45' E 008°04'1720.4
2015-Apr-25 20:33N 37°48' E 008°25'2020.3
2015-Apr-25 19:32N 37°51' E 008°51'2019.7
2015-Apr-25 18:33N 37°48' E 009°16'2020.4
2015-Apr-25 17:33N 37°42' E 009°40'2020.3
2015-Apr-25 16:33N 37°39' E 010°06'2019.9
2015-Apr-25 15:31N 37°36' E 010°31'4220.0
2015-Apr-25 13:25N 37°23' E 011°22'1820.2
2015-Apr-25 12:30N 37°15' E 011°42'2320.1
2015-Apr-25 11:23N 37°04' E 012°07'6720.2
2015-Apr-25 08:03N 36°45' E 013°28'1220.0
2015-Apr-25 07:28N 36°42' E 013°42'1819.8
2015-Apr-25 06:34N 36°37' E 014°04'2020.1
2015-Apr-25 05:34N 36°31' E 014°28'2120.0
2015-Apr-25 04:32N 36°29' E 014°53'  

Dump ship's entire track history